sensor_id;sensor_type;location;lat;lon;timestamp;P1;durP1;ratioP1;P2;durP2;ratioP2
54406;SDS011;40313;50.308;30.374;2023-02-01T00:06:02;21.33;;;14.23;;
54406;SDS011;40313;50.308;30.374;2023-02-01T00:08:28;29.20;;;15.05;;
54406;SDS011;40313;50.308;30.374;2023-02-01T00:10:59;28.30;;;14.63;;
54406;SDS011;40313;50.308;30.374;2023-02-01T00:13:28;27.20;;;13.63;;
54406;SDS011;40313;50.308;30.374;2023-02-01T00:16:01;30.30;;;12.50;;
54406;SDS011;40313;50.308;30.374;2023-02-01T00:18:29;28.42;;;12.75;;
54406;SDS011;40313;50.308;30.374;2023-02-01T00:30:42;26.00;;;11.10;;
54406;SDS011;40313;50.308;30.374;2023-02-01T00:33:08;17.40;;;10.70;;
54406;SDS011;40313;50.308;30.374;2023-02-01T00:38:02;15.10;;;11.90;;
54406;SDS011;40313;50.308;30.374;2023-02-01T00:40:28;21.20;;;12.00;;
54406;SDS011;40313;50.308;30.374;2023-02-01T00:42:55;16.70;;;11.90;;
54406;SDS011;40313;50.308;30.374;2023-02-01T00:45:22;32.08;;;11.70;;
54406;SDS011;40313;50.308;30.374;2023-02-01T00:47:50;26.80;;;10.70;;
54406;SDS011;40313;50.308;30.374;2023-02-01T00:50:17;24.00;;;9.60;;
54406;SDS011;40313;50.308;30.374;2023-02-01T00:52:43;16.25;;;9.48;;
54406;SDS011;40313;50.308;30.374;2023-02-01T00:55:10;22.92;;;9.85;;
54406;SDS011;40313;50.308;30.374;2023-02-01T00:57:36;40.35;;;10.55;;
54406;SDS011;40313;50.308;30.374;2023-02-01T01:00:03;10.15;;;9.30;;
54406;SDS011;40313;50.308;30.374;2023-02-01T01:02:30;17.48;;;9.45;;
54406;SDS011;40313;50.308;30.374;2023-02-01T01:04:58;13.68;;;9.77;;
54406;SDS011;40313;50.308;30.374;2023-02-01T01:07:24;16.63;;;9.93;;
54406;SDS011;40313;50.308;30.374;2023-02-01T01:09:51;28.45;;;9.90;;
54406;SDS011;40313;50.308;30.374;2023-02-01T01:12:17;28.08;;;10.32;;
54406;SDS011;40313;50.308;30.374;2023-02-01T01:14:44;16.73;;;9.88;;
54406;SDS011;40313;50.308;30.374;2023-02-01T01:17:11;21.13;;;10.23;;
54406;SDS011;40313;50.308;30.374;2023-02-01T01:19:37;27.20;;;11.27;;
54406;SDS011;40313;50.308;30.374;2023-02-01T01:22:05;33.42;;;12.25;;
54406;SDS011;40313;50.308;30.374;2023-02-01T01:24:32;29.67;;;11.95;;
54406;SDS011;40313;50.308;30.374;2023-02-01T01:26:58;32.45;;;12.30;;
54406;SDS011;40313;50.308;30.374;2023-02-01T01:29:25;26.65;;;12.20;;
54406;SDS011;40313;50.308;30.374;2023-02-01T01:31:51;24.00;;;12.25;;
54406;SDS011;40313;50.308;30.374;2023-02-01T01:34:18;25.73;;;10.38;;
54406;SDS011;40313;50.308;30.374;2023-02-01T01:36:44;36.47;;;11.20;;
54406;SDS011;40313;50.308;30.374;2023-02-01T01:39:12;29.52;;;11.07;;
54406;SDS011;40313;50.308;30.374;2023-02-01T01:41:39;13.27;;;9.40;;
54406;SDS011;40313;50.308;30.374;2023-02-01T01:44:06;18.60;;;10.65;;
54406;SDS011;40313;50.308;30.374;2023-02-01T01:47:11;32.55;;;11.15;;
54406;SDS011;40313;50.308;30.374;2023-02-01T01:49:40;37.15;;;10.45;;
54406;SDS011;40313;50.308;30.374;2023-02-01T04:17:53;60.50;;;20.90;;
54406;SDS011;40313;50.308;30.374;2023-02-01T04:20:20;69.30;;;18.50;;
54406;SDS011;40313;50.308;30.374;2023-02-01T07:06:53;51.70;;;19.38;;
54406;SDS011;40313;50.308;30.374;2023-02-01T07:09:21;36.78;;;19.20;;
54406;SDS011;40313;50.308;30.374;2023-02-01T07:11:48;37.90;;;17.95;;
54406;SDS011;40313;50.308;30.374;2023-02-01T07:14:14;40.95;;;15.93;;
54406;SDS011;40313;50.308;30.374;2023-02-01T07:16:41;38.25;;;15.57;;
54406;SDS011;40313;50.308;30.374;2023-02-01T07:19:07;39.30;;;16.73;;
54406;SDS011;40313;50.308;30.374;2023-02-01T07:21:34;45.40;;;18.25;;
54406;SDS011;40313;50.308;30.374;2023-02-01T07:24:00;36.85;;;16.88;;
54406;SDS011;40313;50.308;30.374;2023-02-01T07:26:28;42.22;;;17.50;;
54406;SDS011;40313;50.308;30.374;2023-02-01T07:28:55;38.42;;;14.32;;
54406;SDS011;40313;50.308;30.374;2023-02-01T07:31:21;39.22;;;14.55;;
54406;SDS011;40313;50.308;30.374;2023-02-01T07:33:51;34.17;;;14.05;;
54406;SDS011;40313;50.308;30.374;2023-02-01T07:36:18;40.03;;;14.23;;
54406;SDS011;40313;50.308;30.374;2023-02-01T07:38:45;36.67;;;14.43;;
54406;SDS011;40313;50.308;30.374;2023-02-01T07:41:12;23.33;;;13.25;;
54406;SDS011;40313;50.308;30.374;2023-02-01T07:43:41;27.35;;;14.25;;
54406;SDS011;40313;50.308;30.374;2023-02-01T07:46:07;32.17;;;14.40;;
54406;SDS011;40313;50.308;30.374;2023-02-01T07:48:35;29.55;;;14.30;;
54406;SDS011;40313;50.308;30.374;2023-02-01T12:25:57;11.85;;;10.18;;
54406;SDS011;40313;50.308;30.374;2023-02-01T12:28:43;21.67;;;9.48;;
54406;SDS011;40313;50.308;30.374;2023-02-01T12:31:37;17.88;;;9.50;;
54406;SDS011;40313;50.308;30.374;2023-02-01T12:34:20;13.45;;;9.15;;
54406;SDS011;40313;50.308;30.374;2023-02-01T12:37:01;11.50;;;8.93;;
54406;SDS011;40313;50.308;30.374;2023-02-01T12:39:38;24.20;;;10.10;;
54406;SDS011;40313;50.308;30.374;2023-02-01T12:42:09;15.00;;;9.80;;
54406;SDS011;40313;50.308;30.374;2023-02-01T12:44:43;17.33;;;9.93;;
54406;SDS011;40313;50.308;30.374;2023-02-01T12:47:15;17.60;;;10.05;;
54406;SDS011;40313;50.308;30.374;2023-02-01T12:49:48;10.60;;;9.35;;
54406;SDS011;40313;50.308;30.374;2023-02-01T12:52:25;22.25;;;10.18;;
54406;SDS011;40313;50.308;30.374;2023-02-01T12:55:01;11.63;;;9.48;;
54406;SDS011;40313;50.308;30.374;2023-02-01T12:57:35;27.63;;;11.33;;
54406;SDS011;40313;50.308;30.374;2023-02-01T13:00:07;20.02;;;11.63;;
54406;SDS011;40313;50.308;30.374;2023-02-01T13:02:41;11.15;;;10.05;;
54406;SDS011;40313;50.308;30.374;2023-02-01T13:05:15;25.63;;;13.25;;
54406;SDS011;40313;50.308;30.374;2023-02-01T13:07:44;20.77;;;10.23;;
54406;SDS011;40313;50.308;30.374;2023-02-01T13:10:16;13.20;;;10.63;;
54406;SDS011;40313;50.308;30.374;2023-02-01T13:12:50;38.20;;;20.63;;
54406;SDS011;40313;50.308;30.374;2023-02-01T13:15:21;81.20;;;46.50;;
54406;SDS011;40313;50.308;30.374;2023-02-01T13:17:52;58.45;;;38.15;;
54406;SDS011;40313;50.308;30.374;2023-02-01T13:20:22;34.85;;;24.45;;
54406;SDS011;40313;50.308;30.374;2023-02-01T13:22:54;11.50;;;10.40;;
54406;SDS011;40313;50.308;30.374;2023-02-01T13:25:27;18.40;;;11.57;;
54406;SDS011;40313;50.308;30.374;2023-02-01T13:28:03;28.55;;;12.00;;
54406;SDS011;40313;50.308;30.374;2023-02-01T13:30:36;11.55;;;8.80;;
54406;SDS011;40313;50.308;30.374;2023-02-01T13:33:15;15.25;;;9.85;;
54406;SDS011;40313;50.308;30.374;2023-02-01T13:54:23;13.30;;;12.20;;
54406;SDS011;40313;50.308;30.374;2023-02-01T14:07:20;29.65;;;17.17;;
54406;SDS011;40313;50.308;30.374;2023-02-01T14:09:47;27.85;;;15.85;;
54406;SDS011;40313;50.308;30.374;2023-02-01T14:15:18;16.10;;;14.35;;
54406;SDS011;40313;50.308;30.374;2023-02-01T14:17:50;16.90;;;14.45;;
54406;SDS011;40313;50.308;30.374;2023-02-01T14:23:21;14.02;;;12.65;;
54406;SDS011;40313;50.308;30.374;2023-02-01T14:26:03;21.50;;;11.15;;
54406;SDS011;40313;50.308;30.374;2023-02-01T20:42:48;22.50;;;7.40;;
54406;SDS011;40313;50.308;30.374;2023-02-01T20:55:01;18.45;;;7.00;;
54406;SDS011;40313;50.308;30.374;2023-02-01T20:57:27;24.27;;;7.22;;
54406;SDS011;40313;50.308;30.374;2023-02-01T20:59:55;21.50;;;7.18;;
54406;SDS011;40313;50.308;30.374;2023-02-01T21:02:22;18.90;;;7.50;;
54406;SDS011;40313;50.308;30.374;2023-02-01T21:04:49;23.10;;;8.30;;
54406;SDS011;40313;50.308;30.374;2023-02-01T21:07:16;28.20;;;7.55;;
54406;SDS011;40313;50.308;30.374;2023-02-01T21:12:09;20.70;;;7.50;;
54406;SDS011;40313;50.308;30.374;2023-02-01T21:14:35;17.30;;;8.00;;
54406;SDS011;40313;50.308;30.374;2023-02-01T21:17:03;31.40;;;7.75;;
54406;SDS011;40313;50.308;30.374;2023-02-01T23:25:10;8.63;;;7.45;;
54406;SDS011;40313;50.308;30.374;2023-02-01T23:27:37;32.28;;;8.38;;
